createdAt,value
2022-12-09T00:01:22.062Z,18.48
2022-12-09T00:03:56.168Z,19.90
2022-12-09T00:06:47.208Z,21.07
2022-12-09T00:09:19.824Z,20.10
2022-12-09T00:11:52.832Z,20.63
2022-12-09T00:14:26.146Z,20.13
2022-12-09T00:16:58.793Z,19.70
2022-12-09T00:19:30.944Z,21.70
2022-12-09T00:22:03.973Z,20.83
2022-12-09T00:27:29.698Z,19.60
2022-12-09T00:30:06.109Z,17.23
2022-12-09T00:32:38.707Z,22.77
2022-12-09T00:35:11.647Z,21.15
2022-12-09T00:37:43.783Z,19.58
2022-12-09T00:40:17.071Z,18.33
2022-12-09T00:42:50.569Z,20.02
2022-12-09T00:45:23.646Z,19.23
2022-12-09T00:47:56.056Z,20.00
2022-12-09T00:50:28.352Z,21.25
2022-12-09T00:53:00.756Z,21.40
2022-12-09T00:55:33.271Z,16.45
2022-12-09T00:58:06.010Z,18.17
2022-12-09T01:00:39.174Z,21.60
2022-12-09T01:03:16.448Z,20.88
2022-12-09T01:05:50.628Z,18.08
2022-12-09T01:08:24.324Z,19.23
2022-12-09T01:10:57.389Z,17.60
2022-12-09T01:13:29.266Z,18.23
2022-12-09T01:16:02.257Z,17.13
2022-12-09T01:18:34.635Z,21.70
2022-12-09T01:21:06.645Z,20.52
2022-12-09T01:23:39.829Z,22.10
2022-12-09T01:26:12.099Z,22.40
2022-12-09T01:28:45.021Z,20.00
2022-12-09T01:31:20.431Z,26.77
2022-12-09T01:33:55.978Z,22.10
2022-12-09T01:36:30.523Z,26.50
2022-12-09T01:39:03.548Z,23.70
2022-12-09T01:41:36.030Z,24.13
2022-12-09T01:44:25.414Z,23.98
2022-12-09T01:47:02.419Z,29.27
2022-12-09T01:49:48.901Z,26.43
2022-12-09T01:52:23.221Z,20.58
2022-12-09T01:54:57.239Z,18.40
2022-12-09T01:57:29.223Z,16.77
2022-12-09T02:00:02.739Z,21.65
2022-12-09T02:02:38.516Z,17.33
2022-12-09T02:05:12.235Z,18.73
2022-12-09T02:07:47.120Z,21.27
2022-12-09T02:10:22.548Z,18.38
2022-12-09T02:13:28.001Z,16.65
2022-12-09T02:16:05.581Z,22.73
2022-12-09T02:18:50.754Z,27.40
2022-12-09T02:21:38.901Z,27.30
2022-12-09T02:24:41.960Z,28.00
2022-12-09T02:27:43.357Z,30.25
2022-12-09T02:30:25.751Z,26.53
2022-12-09T02:33:41.504Z,27.85
2022-12-09T02:36:20.987Z,28.40
2022-12-09T02:38:54.270Z,31.05
2022-12-09T02:41:29.880Z,28.60
2022-12-09T02:44:15.221Z,26.93
2022-12-09T02:46:48.419Z,29.15
2022-12-09T02:49:23.451Z,27.83
2022-12-09T02:51:57.358Z,27.95
2022-12-09T02:54:32.366Z,30.73
2022-12-09T02:57:13.510Z,33.20
2022-12-09T02:59:46.866Z,32.08
2022-12-09T03:02:30.360Z,30.58
2022-12-09T03:05:36.744Z,30.95
2022-12-09T03:08:46.713Z,29.02
2022-12-09T03:11:23.731Z,31.27
2022-12-09T03:14:26.089Z,30.23
2022-12-09T03:17:20.569Z,29.58
2022-12-09T03:20:05.671Z,31.05
2022-12-09T03:22:42.111Z,32.08
2022-12-09T03:25:22.608Z,33.40
2022-12-09T03:28:02.178Z,35.80
2022-12-09T03:30:38.402Z,36.88
2022-12-09T03:33:13.614Z,32.13
2022-12-09T03:35:56.007Z,36.72
2022-12-09T03:38:33.869Z,34.83
2022-12-09T03:41:33.618Z,36.33
2022-12-09T03:44:16.917Z,36.97
2022-12-09T03:46:49.259Z,37.38
2022-12-09T03:49:22.221Z,31.77
2022-12-09T03:52:01.679Z,38.93
2022-12-09T03:54:46.654Z,36.58
2022-12-09T03:57:20.574Z,40.65
2022-12-09T04:00:03.183Z,36.97
2022-12-09T04:02:45.366Z,34.63
2022-12-09T04:05:18.522Z,35.60
2022-12-09T04:07:51.162Z,32.05
2022-12-09T04:10:23.790Z,36.17
2022-12-09T04:12:56.446Z,34.70
2022-12-09T04:15:29.409Z,33.13
2022-12-09T04:18:01.626Z,35.10
2022-12-09T04:20:34.615Z,34.90
2022-12-09T04:23:07.206Z,35.78
2022-12-09T04:25:39.631Z,35.30
2022-12-09T04:28:11.550Z,40.25
2022-12-09T04:30:48.173Z,33.00
2022-12-09T04:33:20.957Z,40.10
2022-12-09T04:35:52.946Z,34.58
2022-12-09T04:38:25.960Z,33.45
2022-12-09T04:41:04.031Z,36.03
2022-12-09T04:43:37.117Z,35.60
2022-12-09T04:46:13.832Z,33.97
2022-12-09T04:48:47.035Z,32.58
2022-12-09T04:51:18.991Z,32.92
2022-12-09T04:53:51.973Z,39.35
2022-12-09T04:56:23.935Z,31.93
2022-12-09T04:58:56.783Z,37.53
2022-12-09T05:01:31.502Z,32.08
2022-12-09T05:04:05.780Z,34.45
2022-12-09T05:06:38.044Z,32.55
2022-12-09T05:09:13.427Z,34.77
2022-12-09T05:11:45.816Z,38.28
2022-12-09T05:14:19.095Z,34.22
2022-12-09T05:16:51.604Z,33.88
2022-12-09T05:19:24.906Z,37.13
2022-12-09T05:21:56.969Z,38.47
2022-12-09T05:24:30.195Z,38.95
2022-12-09T05:27:02.159Z,35.08
2022-12-09T05:29:35.258Z,36.65
2022-12-09T05:32:08.569Z,38.90
2022-12-09T05:34:41.214Z,38.93
2022-12-09T05:37:16.760Z,34.83
2022-12-09T05:39:48.694Z,37.80
2022-12-09T05:42:21.639Z,38.63
2022-12-09T05:44:55.328Z,36.15
2022-12-09T05:47:29.970Z,34.03
2022-12-09T05:50:08.076Z,32.40
2022-12-09T05:52:40.918Z,34.22
2022-12-09T05:55:14.882Z,39.38
2022-12-09T05:57:47.688Z,35.63
2022-12-09T06:00:22.666Z,35.97
2022-12-09T06:02:55.213Z,38.88
2022-12-09T06:05:28.352Z,33.97
2022-12-09T06:08:05.272Z,36.40
2022-12-09T06:10:41.375Z,38.78
2022-12-09T06:13:15.307Z,36.40
2022-12-09T06:15:47.712Z,34.55
2022-12-09T06:18:20.791Z,40.63
2022-12-09T06:20:52.984Z,37.88
2022-12-09T06:23:26.995Z,33.53
2022-12-09T06:25:59.657Z,34.17
2022-12-09T06:28:33.933Z,31.92
2022-12-09T06:31:06.185Z,39.70
2022-12-09T06:33:57.247Z,41.47
2022-12-09T06:36:32.105Z,35.53
2022-12-09T06:39:10.000Z,41.17
2022-12-09T06:41:43.482Z,38.15
2022-12-09T06:44:23.512Z,37.10
2022-12-09T06:46:56.854Z,40.78
2022-12-09T06:49:30.006Z,35.15
2022-12-09T06:52:02.526Z,34.80
2022-12-09T06:54:35.884Z,53.60
2022-12-09T06:57:08.004Z,39.15
2022-12-09T06:59:44.055Z,37.15
2022-12-09T07:02:17.005Z,37.72
2022-12-09T07:04:55.228Z,39.20
2022-12-09T07:07:28.743Z,33.65
2022-12-09T07:10:07.887Z,39.05
2022-12-09T07:12:41.295Z,41.30
2022-12-09T07:15:14.553Z,35.35
2022-12-09T07:17:50.666Z,40.33
2022-12-09T07:20:23.105Z,34.92
2022-12-09T07:22:56.809Z,38.42
2022-12-09T07:25:29.637Z,35.53
2022-12-09T07:28:02.451Z,37.45
2022-12-09T07:30:37.978Z,38.20
2022-12-09T07:33:10.947Z,39.15
2022-12-09T07:35:44.720Z,43.08
2022-12-09T07:38:18.258Z,37.35
2022-12-09T07:40:50.361Z,38.10
2022-12-09T07:43:23.207Z,37.47
2022-12-09T07:45:55.284Z,38.60
2022-12-09T07:48:28.362Z,42.97
2022-12-09T07:51:04.738Z,38.38
2022-12-09T07:53:41.927Z,35.85
2022-12-09T07:56:16.350Z,37.47
2022-12-09T07:58:54.277Z,36.88
2022-12-09T08:01:30.130Z,36.03
2022-12-09T08:04:06.448Z,36.35
2022-12-09T08:06:40.418Z,37.50
2022-12-09T08:09:14.209Z,37.33
2022-12-09T08:11:47.763Z,38.03
2022-12-09T08:14:20.460Z,40.33
2022-12-09T08:16:54.010Z,36.90
2022-12-09T08:19:26.315Z,38.05
2022-12-09T08:21:59.277Z,36.60
2022-12-09T08:24:31.404Z,39.80
2022-12-09T08:27:04.446Z,38.47
2022-12-09T08:29:37.298Z,37.58
2022-12-09T08:32:09.644Z,36.08
2022-12-09T08:34:41.952Z,32.07
2022-12-09T08:37:15.182Z,31.85
2022-12-09T08:39:47.870Z,33.75
2022-12-09T08:42:20.683Z,33.72
2022-12-09T08:44:58.582Z,33.28
2022-12-09T08:47:37.912Z,36.83
2022-12-09T08:50:11.269Z,39.17
2022-12-09T08:52:43.816Z,35.78
2022-12-09T08:55:15.839Z,35.47
2022-12-09T08:57:48.914Z,48.15
2022-12-09T09:00:21.107Z,41.57
2022-12-09T09:02:54.670Z,39.13
2022-12-09T09:05:27.160Z,40.35
2022-12-09T09:08:00.183Z,40.65
2022-12-09T09:10:32.772Z,41.95
2022-12-09T09:13:05.736Z,39.80
2022-12-09T09:15:40.519Z,34.50
2022-12-09T09:18:14.262Z,36.65
2022-12-09T09:20:49.012Z,33.85
2022-12-09T09:23:21.050Z,32.65
2022-12-09T09:25:54.242Z,36.83
2022-12-09T09:28:30.885Z,32.60
2022-12-09T09:31:07.547Z,36.05
2022-12-09T09:33:40.574Z,35.42
2022-12-09T09:36:21.024Z,33.22
2022-12-09T09:39:16.061Z,31.93
2022-12-09T09:41:54.507Z,39.38
2022-12-09T09:44:42.017Z,34.92
2022-12-09T09:47:27.344Z,34.15
2022-12-09T09:50:12.189Z,37.03
2022-12-09T09:52:44.821Z,34.57
2022-12-09T09:55:19.909Z,34.33
2022-12-09T09:57:55.030Z,32.03
2022-12-09T10:00:35.251Z,30.77
2022-12-09T10:03:20.896Z,28.88
2022-12-09T10:06:13.088Z,35.93
2022-12-09T10:09:04.579Z,32.85
2022-12-09T10:12:18.888Z,33.00
2022-12-09T10:14:52.294Z,32.03
2022-12-09T10:17:51.150Z,30.13
2022-12-09T10:20:28.926Z,34.87
2022-12-09T10:23:15.505Z,34.08
2022-12-09T10:26:00.418Z,33.30
2022-12-09T10:28:38.594Z,35.85
2022-12-09T10:31:12.164Z,33.67
2022-12-09T10:33:44.798Z,37.10
2022-12-09T10:36:30.784Z,31.85
2022-12-09T10:39:21.132Z,35.45
2022-12-09T10:42:16.297Z,31.23
2022-12-09T10:44:49.104Z,29.58
2022-12-09T10:47:29.079Z,32.63
2022-12-09T10:50:04.114Z,29.20
2022-12-09T10:52:45.346Z,31.02
2022-12-09T10:55:37.320Z,30.17
2022-12-09T10:58:18.309Z,33.33
2022-12-09T11:01:08.800Z,32.97
2022-12-09T11:03:49.264Z,32.35
2022-12-09T11:06:30.493Z,34.95
2022-12-09T11:09:04.285Z,34.97
2022-12-09T11:11:49.631Z,31.73
2022-12-09T11:14:31.953Z,27.50
2022-12-09T11:17:24.970Z,30.45
2022-12-09T11:20:07.909Z,29.88
2022-12-09T11:22:44.183Z,28.85
2022-12-09T11:25:27.354Z,32.45
2022-12-09T11:28:33.631Z,26.33
2022-12-09T11:31:29.533Z,28.88
2022-12-09T11:34:26.203Z,32.85
2022-12-09T11:36:59.099Z,32.67
2022-12-09T11:39:35.255Z,28.27
2022-12-09T11:42:20.790Z,29.63
2022-12-09T11:45:06.991Z,32.30
2022-12-09T11:50:42.954Z,30.35
2022-12-09T11:53:33.854Z,34.00
2022-12-09T11:56:20.828Z,30.60
2022-12-09T11:58:58.763Z,33.17
2022-12-09T12:01:37.399Z,30.98
2022-12-09T12:04:16.504Z,29.35
2022-12-09T12:06:57.046Z,28.95
2022-12-09T12:09:40.519Z,33.50
2022-12-09T12:12:33.037Z,35.33
2022-12-09T12:15:25.595Z,31.67
2022-12-09T12:17:57.932Z,39.55
2022-12-09T12:21:11.578Z,33.00
2022-12-09T12:23:56.258Z,31.03
2022-12-09T12:27:01.099Z,28.05
2022-12-09T12:29:57.099Z,34.13
2022-12-09T12:36:15.828Z,34.17
2022-12-09T12:39:14.696Z,36.50
2022-12-09T12:42:06.455Z,33.80
2022-12-09T12:45:26.060Z,33.58
2022-12-09T12:48:15.725Z,31.75
2022-12-09T12:51:21.705Z,31.23
2022-12-09T12:54:21.458Z,30.97
2022-12-09T12:57:30.580Z,33.17
2022-12-09T13:00:13.273Z,31.20
2022-12-09T13:03:12.022Z,33.47
2022-12-09T13:05:48.082Z,33.08
2022-12-09T13:08:28.589Z,33.43
2022-12-09T13:11:11.876Z,30.65
2022-12-09T13:13:55.882Z,29.33
2022-12-09T13:16:33.644Z,27.98
2022-12-09T13:19:22.542Z,29.98
2022-12-09T13:21:55.160Z,30.13
2022-12-09T13:24:40.749Z,30.40
2022-12-09T13:27:40.563Z,34.05
2022-12-09T13:30:20.158Z,28.20
2022-12-09T13:33:11.088Z,34.15
2022-12-09T13:36:06.791Z,30.17
2022-12-09T13:38:42.653Z,32.42
2022-12-09T13:41:56.520Z,31.02
2022-12-09T13:44:36.144Z,30.35
2022-12-09T13:47:36.839Z,33.38
2022-12-09T13:50:36.534Z,31.20
2022-12-09T13:53:21.137Z,36.33
2022-12-09T13:56:17.202Z,37.38
2022-12-09T13:59:39.833Z,36.58
2022-12-09T14:02:20.575Z,37.88
2022-12-09T14:05:15.208Z,38.40
2022-12-09T14:07:57.516Z,37.90
2022-12-09T14:10:43.488Z,37.70
2022-12-09T14:13:26.744Z,39.80
2022-12-09T14:16:28.005Z,37.00
2022-12-09T14:19:26.288Z,38.23
2022-12-09T14:22:22.128Z,36.05
2022-12-09T14:24:57.464Z,43.25
2022-12-09T14:27:32.082Z,46.42
2022-12-09T14:30:24.750Z,38.83
2022-12-09T14:32:57.867Z,47.43
2022-12-09T14:35:43.720Z,42.17
2022-12-09T14:42:13.868Z,35.20
2022-12-09T14:44:59.145Z,40.45
2022-12-09T14:47:39.882Z,41.17
2022-12-09T14:50:23.309Z,40.40
2022-12-09T14:53:01.050Z,43.50
2022-12-09T14:55:39.776Z,40.42
2022-12-09T14:58:21.405Z,41.97
2022-12-09T15:01:06.759Z,38.33
2022-12-09T15:03:45.327Z,41.95
2022-12-09T15:06:20.381Z,51.47
2022-12-09T15:08:56.611Z,45.35
2022-12-09T15:11:34.548Z,48.42
2022-12-09T15:14:27.297Z,45.27
2022-12-09T15:17:00.692Z,42.28
2022-12-09T15:22:33.260Z,45.22
2022-12-09T15:25:05.897Z,47.75
2022-12-09T15:27:38.467Z,46.93
2022-12-09T15:30:28.180Z,48.83
2022-12-09T15:33:00.592Z,45.45
2022-12-09T15:35:34.261Z,44.65
2022-12-09T15:38:09.251Z,46.33
2022-12-09T15:41:03.625Z,40.40
2022-12-09T15:43:37.903Z,47.58
2022-12-09T15:46:12.322Z,42.33
2022-12-09T15:48:50.040Z,84.07
2022-12-09T15:51:26.799Z,47.95
2022-12-09T15:54:05.170Z,43.10
2022-12-09T15:56:57.763Z,36.95
2022-12-09T15:59:33.520Z,34.78
2022-12-09T16:02:08.523Z,37.97
2022-12-09T16:04:47.008Z,40.88
2022-12-09T16:07:22.171Z,34.53
2022-12-09T16:10:10.362Z,38.33
2022-12-09T16:12:44.395Z,39.92
2022-12-09T16:15:50.049Z,40.00
2022-12-09T16:18:49.972Z,40.00
2022-12-09T16:21:28.167Z,38.60
2022-12-09T16:24:12.743Z,44.75
2022-12-09T16:26:48.076Z,38.28
2022-12-09T16:29:31.146Z,43.13
2022-12-09T16:32:34.564Z,44.55
2022-12-09T16:35:25.394Z,48.77
2022-12-09T16:37:57.561Z,46.35
2022-12-09T16:40:53.718Z,41.30
2022-12-09T16:43:28.736Z,39.13
2022-12-09T16:46:27.335Z,40.90
2022-12-09T16:49:04.736Z,46.50
2022-12-09T16:51:39.403Z,48.97
2022-12-09T16:54:20.436Z,42.05
2022-12-09T16:56:56.614Z,42.60
2022-12-09T16:59:37.069Z,41.65
2022-12-09T17:02:31.751Z,45.47
2022-12-09T17:05:06.684Z,48.38
2022-12-09T17:07:39.246Z,45.45
2022-12-09T17:10:15.093Z,57.25
2022-12-09T17:12:47.931Z,48.95
2022-12-09T17:15:21.077Z,47.40
2022-12-09T17:17:53.991Z,49.13
2022-12-09T17:20:26.295Z,44.88
2022-12-09T17:22:59.457Z,48.00
2022-12-09T17:25:33.196Z,46.53
2022-12-09T17:28:07.648Z,43.47
2022-12-09T17:30:40.119Z,47.63
2022-12-09T17:33:12.446Z,48.08
2022-12-09T17:35:45.622Z,45.33
2022-12-09T17:38:17.543Z,49.03
2022-12-09T17:40:50.450Z,42.13
2022-12-09T17:43:22.801Z,44.55
2022-12-09T17:45:58.598Z,47.00
2022-12-09T17:48:34.968Z,47.92
2022-12-09T17:51:10.171Z,50.35
2022-12-09T17:53:42.998Z,42.50
2022-12-09T17:56:22.663Z,42.55
2022-12-09T17:59:08.417Z,44.72
2022-12-09T18:01:41.867Z,48.08
2022-12-09T18:04:15.061Z,48.85
2022-12-09T18:06:50.142Z,46.60
2022-12-09T18:09:23.416Z,45.03
2022-12-09T18:11:55.321Z,50.58
2022-12-09T18:14:28.195Z,50.80
2022-12-09T18:17:01.266Z,48.25
2022-12-09T18:19:35.751Z,48.53
2022-12-09T18:22:07.750Z,50.53
2022-12-09T18:24:40.506Z,46.80
2022-12-09T18:27:12.448Z,47.15
2022-12-09T18:29:45.163Z,44.75
2022-12-09T18:32:17.299Z,42.47
2022-12-09T18:34:50.043Z,47.40
2022-12-09T18:37:21.986Z,48.13
2022-12-09T18:39:54.797Z,45.80
2022-12-09T18:42:26.707Z,52.30
2022-12-09T18:44:59.453Z,46.00
2022-12-09T18:47:31.747Z,44.35
2022-12-09T18:50:03.992Z,50.40
2022-12-09T18:52:38.090Z,54.40
2022-12-09T18:55:10.540Z,51.47
2022-12-09T18:57:43.716Z,54.77
2022-12-09T19:00:15.727Z,55.45
2022-12-09T19:02:48.561Z,58.63
2022-12-09T19:05:20.522Z,53.58
2022-12-09T19:07:53.321Z,49.60
2022-12-09T19:10:25.284Z,50.77
2022-12-09T19:12:57.618Z,54.03
2022-12-09T19:15:29.765Z,51.88
2022-12-09T19:18:02.941Z,54.55
2022-12-09T19:20:34.856Z,54.83
2022-12-09T19:23:09.342Z,100.80
2022-12-09T19:25:45.444Z,64.82
2022-12-09T19:28:18.885Z,49.13
2022-12-09T19:30:50.685Z,47.63
2022-12-09T19:33:23.411Z,48.80
2022-12-09T19:35:56.001Z,49.33
2022-12-09T19:38:28.416Z,45.42
2022-12-09T19:41:01.703Z,44.50
2022-12-09T19:43:35.245Z,44.55
2022-12-09T19:46:10.843Z,49.63
2022-12-09T19:48:44.962Z,44.87
2022-12-09T19:51:18.441Z,46.40
2022-12-09T19:53:56.547Z,45.88
2022-12-09T19:56:29.239Z,49.65
2022-12-09T19:59:01.796Z,43.00
2022-12-09T20:01:38.016Z,44.80
2022-12-09T20:04:46.940Z,44.00
2022-12-09T20:07:10.726Z,45.92
2022-12-09T20:09:42.669Z,40.22
2022-12-09T20:12:15.212Z,46.03
2022-12-09T20:14:47.943Z,39.67
2022-12-09T20:17:20.405Z,46.25
2022-12-09T20:19:52.413Z,39.20
2022-12-09T20:22:24.988Z,42.00
2022-12-09T20:24:56.923Z,40.38
2022-12-09T20:27:29.207Z,44.53
2022-12-09T20:30:01.154Z,45.60
2022-12-09T20:32:33.925Z,41.90
2022-12-09T20:35:09.227Z,40.47
2022-12-09T20:37:42.364Z,42.38
2022-12-09T20:40:14.398Z,40.37
2022-12-09T20:42:47.205Z,42.85
2022-12-09T20:45:19.216Z,42.83
2022-12-09T20:47:53.446Z,44.33
2022-12-09T20:50:25.986Z,37.85
2022-12-09T20:52:58.858Z,47.30
2022-12-09T20:55:31.546Z,43.85
2022-12-09T20:58:04.196Z,45.90
2022-12-09T21:00:36.092Z,44.22
2022-12-09T21:03:08.612Z,42.67
2022-12-09T21:05:41.745Z,47.87
2022-12-09T21:08:16.035Z,47.95
2022-12-09T21:10:48.240Z,47.88
2022-12-09T21:13:20.993Z,47.85
2022-12-09T21:15:54.949Z,57.53
2022-12-09T21:18:27.002Z,49.03
2022-12-09T21:20:59.691Z,54.15
2022-12-09T21:23:34.417Z,50.10
2022-12-09T21:26:11.169Z,45.08
2022-12-09T21:28:47.140Z,49.55
2022-12-09T21:31:24.388Z,46.57
2022-12-09T21:33:58.910Z,49.95
2022-12-09T21:36:36.536Z,48.55
2022-12-09T21:39:11.922Z,42.75
2022-12-09T21:41:44.333Z,45.45
2022-12-09T21:44:20.343Z,42.00
2022-12-09T21:46:52.757Z,47.22
2022-12-09T21:49:33.822Z,41.22
2022-12-09T21:52:06.684Z,46.35
2022-12-09T21:54:39.469Z,48.05
2022-12-09T21:57:11.355Z,48.47
2022-12-09T21:59:44.141Z,46.58
2022-12-09T22:02:16.125Z,46.45
2022-12-09T22:04:48.940Z,44.53
2022-12-09T22:07:20.867Z,42.33
2022-12-09T22:09:53.102Z,43.60
2022-12-09T22:12:25.816Z,47.25
2022-12-09T22:14:57.781Z,42.17
2022-12-09T22:17:32.629Z,46.45
2022-12-09T22:20:49.089Z,46.03
2022-12-09T22:23:00.154Z,48.63
2022-12-09T22:25:32.082Z,48.42
2022-12-09T22:28:04.935Z,47.58
2022-12-09T22:30:37.110Z,47.63
2022-12-09T22:33:09.972Z,51.15
2022-12-09T22:35:42.320Z,47.10
2022-12-09T22:38:14.923Z,49.67
2022-12-09T22:40:47.719Z,45.88
2022-12-09T22:43:19.615Z,51.40
2022-12-09T22:45:52.380Z,47.85
2022-12-09T22:48:24.752Z,46.30
2022-12-09T22:50:57.033Z,49.28
2022-12-09T22:53:28.956Z,45.95
2022-12-09T22:56:01.866Z,43.45
2022-12-09T22:58:34.901Z,47.33
2022-12-09T23:01:14.840Z,46.50
2022-12-09T23:03:47.240Z,42.45
2022-12-09T23:06:20.011Z,46.90
2022-12-09T23:08:52.938Z,46.78
2022-12-09T23:11:28.085Z,52.55
2022-12-09T23:14:01.068Z,49.30
2022-12-09T23:16:33.150Z,46.97
2022-12-09T23:19:05.941Z,47.58
2022-12-09T23:21:40.213Z,48.55
2022-12-09T23:24:22.620Z,47.67
2022-12-09T23:26:57.332Z,49.33
2022-12-09T23:29:29.236Z,47.88
2022-12-09T23:32:01.949Z,46.80
2022-12-09T23:34:33.883Z,45.80
2022-12-09T23:37:06.871Z,45.03
2022-12-09T23:39:40.206Z,48.00
2022-12-09T23:42:12.524Z,44.10
2022-12-09T23:44:44.589Z,55.00
2022-12-09T23:47:17.337Z,51.92
2022-12-09T23:49:49.234Z,47.30
2022-12-09T23:52:23.034Z,51.77
2022-12-09T23:54:58.461Z,48.15
2022-12-09T23:57:33.817Z,49.25
